Terminal Aerodrome Forecast
Issued by NWS

Home | Current Version | Previous Version | Text Only | Print | Product List | Glossary Off
Versions: 1 2 3 4 5 6 7 8 9 10 11 12 13 14 15 16 17 18 19 20

000
FTUS43 KGRB 281424 AAA
TAFMTW
TAF AMD
KMTW 281424Z 2814/2912 35012G26KT P6SM SCT018 BKN035
      TEMPO 2814/2816 -SHRA BKN007 BKN012
     FM281600 03012G18KT P6SM BKN022 BKN035
      TEMPO 2816/2817 -SHRA
     FM281800 04014G21KT P6SM -SHRA BKN040
     FM282100 03015G21KT P6SM BKN050
     FM290000 02013KT P6SM SCT030=

USA.gov is the U.S. government's official web portal to all federal, state and local government web resources and services.